Flight Track Log - Related Links

Times and Time Zones

All times are in EDT time to prevent confusion due to time zone crossing. See the AAL984 flight status page for this flight to view local times or setup timezone preferences in your user account.

Time Position Orientation Groundspeed Altitude Reporting Facility
EDT Latitude Longitude Course Direction KTS MPH feet Rate Location/Type
Tue 08:12:42 PM -34.8390 -56.0860 269° West 201 231 2,000  Level FlightAware ADS-B
Tue 08:13:02 PM -34.8250 -56.0980 325° Northwest 213 245 2,500 1,714 Climbing FlightAware ADS-B
Tue 08:13:52 PM -34.7740 -56.1100 349° North 247 284 4,000 2,259 Climbing FlightAware ADS-B
Tue 08:14:27 PM -34.7320 -56.1280 341° North 262 302 5,700 2,618 Climbing FlightAware ADS-B
Tue 08:14:47 PM -34.7170 -56.1380 331° Northwest 263 303 6,400 2,400 Climbing FlightAware ADS-B
Tue 08:15:07 PM -34.6950 -56.1510 334° Northwest 268 308 7,300 2,880 Climbing FlightAware ADS-B
Tue 08:15:37 PM -34.6580 -56.1630 345° North 276 318 8,800 3,000 Climbing FlightAware ADS-B
Tue 08:15:57 PM -34.6320 -56.1700 348° North 277 319 9,800 2,571 Climbing FlightAware ADS-B
Tue 08:16:47 PM -34.5500 -56.1980 344° North 305 351 11,800 2,566 Climbing FlightAware ADS-B
Tue 08:18:22 PM -34.4130 -56.2480 343° North 337 388 16,000 2,700 Climbing FlightAware ADS-B
Tue 08:19:07 PM -34.3480 -56.2710 344° North 336 387 18,100 2,460 Climbing FlightAware ADS-B
Tue 08:20:02 PM -34.2630 -56.3020 343° North 349 402 20,100 2,147 Climbing FlightAware ADS-B
Tue 08:20:42 PM -34.2000 -56.3240 344° North 357 411 21,500 2,047 Climbing FlightAware ADS-B
Tue 08:21:27 PM -34.1310 -56.3480 344° North 364 419 23,000 2,047 Climbing FlightAware ADS-B
Tue 08:22:07 PM -34.0640 -56.3720 343° North 371 427 24,400 1,906 Climbing FlightAware ADS-B
Tue 08:22:52 PM -33.9890 -56.3980 344° North 376 433 25,700 1,694 Climbing FlightAware ADS-B
Tue 08:23:32 PM -33.9210 -56.4210 344° North 383 441 26,800 1,650 Climbing FlightAware ADS-B
Tue 08:24:12 PM -33.8540 -56.4440 344° North 389 448 27,900 847 Climbing FlightAware ADS-B
Tue 08:24:57 PM -33.7740 -56.4720 344° North 414 476 28,000 420 Climbing FlightAware ADS-B
Tue 08:25:52 PM -33.6720 -56.5070 344° North 415 478 28,600 758 Climbing FlightAware ADS-B
Tue 08:26:32 PM -33.5930 -56.5340 344° North 407 468 29,200 988 Climbing FlightAware ADS-B
Tue 08:27:17 PM -33.5140 -56.5620 344° North 399 459 30,000 918 Climbing FlightAware ADS-B
Tue 08:27:57 PM -33.4520 -56.5830 344° North 399 459 30,500 706 Climbing FlightAware ADS-B
Tue 08:28:42 PM -33.3690 -56.6120 344° North 403 464 31,000 353 Climbing FlightAware ADS-B
Tue 08:29:22 PM -33.2850 -56.6410 344° North 408 470 31,000  Level FlightAware ADS-B
Tue 08:30:02 PM -33.2130 -56.6650 344° North 414 476 31,000  Level FlightAware ADS-B
Tue 08:30:47 PM -33.1300 -56.6930 344° North 414 476 31,000  Level FlightAware ADS-B
Tue 08:31:27 PM -33.0600 -56.7170 344° North 412 474 31,000  Level FlightAware ADS-B
Tue 08:32:07 PM -32.9820 -56.7440 344° North 412 474 31,000  Level FlightAware ADS-B
Tue 08:32:52 PM -32.9060 -56.7710 343° North 412 474 31,000  Level FlightAware ADS-B
Tue 08:33:27 PM -32.8410 -56.7920 345° North 414 476 31,000  Level FlightAware ADS-B
Tue 08:34:17 PM -32.7530 -56.8220 344° North 414 476 31,000  Level FlightAware ADS-B
Tue 08:34:57 PM -32.6900 -56.8430 344° North 414 476 31,000  Level FlightAware ADS-B
Tue 08:35:37 PM -32.6270 -56.8640 344° North 414 476 31,000  Level FlightAware ADS-B
Tue 08:36:22 PM -32.5100 -56.9030 344° North 417 480 31,000  Level FlightAware ADS-B
Tue 08:37:17 PM -32.4180 -56.9350 344° North 418 481 31,000  Level FlightAware ADS-B
Tue 08:37:57 PM -32.3550 -56.9560 344° North 418 481 31,000  Level FlightAware ADS-B
Tue 08:38:42 PM -32.2560 -56.9890 344° North 419 482 31,000  Level FlightAware ADS-B
Tue 08:39:22 PM -32.1740 -57.0160 344° North 418 481 31,000  Level FlightAware ADS-B
Tue 08:40:07 PM -32.0960 -57.0420 344° North 420 483 31,000  Level FlightAware ADS-B
Tue 08:40:57 PM -32.0050 -57.0730 344° North 420 483 31,000  Level FlightAware ADS-B
Tue 08:41:37 PM -31.9410 -57.0940 344° North 420 483 31,000  Level FlightAware ADS-B
Tue 08:42:27 PM -31.8620 -57.1210 344° North 420 483 31,000  Level FlightAware ADS-B
Tue 08:43:07 PM -31.7980 -57.1420 344° North 420 483 31,000  Level FlightAware ADS-B
Tue 08:43:47 PM -31.7350 -57.1640 343° North 420 483 31,000  Level FlightAware ADS-B
Tue 08:44:27 PM -31.6710 -57.1850 344° North 420 483 31,000  Level FlightAware ADS-B
Tue 08:45:07 PM -31.6080 -57.2060 344° North 420 483 31,000  Level FlightAware ADS-B
Tue 08:45:57 PM -31.5280 -57.2330 344° North 420 483 31,000  Level FlightAware ADS-B
Tue 08:46:37 PM -31.4650 -57.2550 343° North 420 483 31,000  Level FlightAware ADS-B
Tue 08:47:17 PM -31.4010 -57.2760 344° North 420 483 31,000  Level FlightAware ADS-B
Tue 08:47:57 PM -31.3380 -57.2970 344° North 420 483 31,000  Level FlightAware ADS-B
Tue 08:48:37 PM -31.2740 -57.3180 344° North 420 483 31,000  Level FlightAware ADS-B
Tue 08:49:17 PM -31.2110 -57.3400 343° North 420 483 31,000  Level FlightAware ADS-B
Tue 08:50:07 PM -31.1320 -57.3660 344° North 420 483 31,000  Level FlightAware ADS-B
Tue 08:52:00 PM -30.9081 -57.4367 345° North  Level FlightAware Approximate
Tue 08:53:00 PM -30.7892 -57.4742 345° North  Level FlightAware Approximate
Tue 08:54:00 PM -30.6702 -57.5115 345° North  Level FlightAware Approximate
Tue 08:55:00 PM -30.5513 -57.5487 345° North  Level FlightAware Approximate
Tue 08:56:00 PM -30.4323 -57.5859 345° North  Level FlightAware Approximate
Tue 08:57:00 PM -30.3134 -57.6230 345° North  Level FlightAware Approximate
Tue 08:58:00 PM -30.1946 -57.6599 345° North  Level FlightAware Approximate
Tue 08:59:00 PM -30.0759 -57.6967 345° North  Level FlightAware Approximate
Tue 08:59:42 PM -29.8230 -57.6360 345° North 455 524 31,000  Level FlightAware ADS-B
Tue 09:00:27 PM -29.7330 -57.6340 North 454 522 31,000  Level FlightAware ADS-B
Tue 09:01:07 PM -29.6460 -57.6320 North 454 522 31,000  Level FlightAware ADS-B
Tue 09:01:52 PM -29.5620 -57.6300 North 454 522 31,000  Level FlightAware ADS-B
Tue 09:02:32 PM -29.4900 -57.6290 North 454 522 31,000  Level FlightAware ADS-B
Tue 09:03:12 PM -29.4190 -57.6270 North 454 522 31,000  Level FlightAware ADS-B
Tue 09:03:57 PM -29.2880 -57.6230 North 456 525 31,000  Level FlightAware ADS-B
Tue 09:04:37 PM -29.2040 -57.6220 North 458 527 31,000  Level FlightAware ADS-B
Tue 09:05:17 PM -29.1260 -57.6200 North 458 527 31,000  Level FlightAware ADS-B
Tue 09:05:57 PM -29.0540 -57.6180 North 458 527 31,000  Level FlightAware ADS-B
Tue 09:06:37 PM -28.9820 -57.6170 North 458 527 31,000  Level FlightAware ADS-B
Tue 09:07:27 PM -28.8490 -57.6130 North 459 528 31,000  Level FlightAware ADS-B
Tue 09:08:22 PM -28.7220 -57.6090 North 457 526 31,000  Level FlightAware ADS-B
Tue 09:09:02 PM -28.6370 -57.6070 North 456 525 31,000  Level FlightAware ADS-B
Tue 09:09:42 PM -28.5520 -57.6050 North 453 521 31,000  Level FlightAware ADS-B
Tue 09:10:37 PM -28.4430 -57.6030 North 452 520 31,000  Level FlightAware ADS-B
Tue 09:11:17 PM -28.3720 -57.6010 North 452 520 31,000  Level FlightAware ADS-B
Tue 09:11:57 PM -28.3010 -57.6000 North 452 520 31,000  Level FlightAware ADS-B
Tue 09:12:47 PM -28.2120 -57.5980 North 452 520 31,000  Level FlightAware ADS-B
Tue 09:13:27 PM -28.1410 -57.5970 North 452 520 31,000  Level FlightAware ADS-B
Tue 09:14:07 PM -28.0700 -57.5950 North 452 520 31,000  Level FlightAware ADS-B
Tue 09:14:47 PM -27.9990 -57.5940 North 452 520 31,000  Level FlightAware ADS-B
Tue 09:15:07 PM -27.8740 -57.6120 353° North 449 517 31,000  Level FlightAware ADS-B
Tue 09:15:47 PM -27.7910 -57.6240 353° North 448 516 31,000  Level FlightAware ADS-B
Tue 09:16:32 PM -27.7030 -57.6360 353° North 448 516 31,000  Level FlightAware ADS-B
Tue 09:17:07 PM -27.6350 -57.6470 352° North 448 516 31,000  Level FlightAware ADS-B
Tue 09:17:47 PM -27.5470 -57.6580 354° North 447 514 31,000  Level FlightAware ADS-B
Tue 09:18:32 PM -27.4620 -57.6720 352° North 447 514 31,000  Level FlightAware ADS-B
Tue 09:19:12 PM -27.3920 -57.6830 352° North 447 514 31,000  Level FlightAware ADS-B
Tue 09:19:57 PM -27.2810 -57.6940 355° North 454 522 31,000  Level FlightAware ADS-B
Tue 09:20:27 PM -27.2130 -57.6890 North 458 527 31,000  Level FlightAware ADS-B
Tue 09:21:27 PM -27.0850 -57.6710 North 460 529 31,000  Level FlightAware ADS-B
Tue 09:22:07 PM -27.0040 -57.6580 North 458 527 31,000  Level FlightAware ADS-B
Tue 09:22:47 PM -26.9170 -57.6440 North 461 531 31,000  Level FlightAware ADS-B
Tue 09:23:22 PM -26.8480 -57.6320 North 458 527 31,000  Level FlightAware ADS-B
Tue 09:24:12 PM -26.7350 -57.6170 North 456 525 31,000  Level FlightAware ADS-B
Tue 09:24:47 PM -26.6640 -57.6110 North 457 526 31,000  Level FlightAware ADS-B
Tue 09:25:37 PM -26.5570 -57.6040 North 456 525 31,000  Level FlightAware ADS-B
Tue 09:26:27 PM -26.4580 -57.5990 North 456 525 31,000  Level FlightAware ADS-B
Tue 09:27:02 PM -26.3760 -57.5990 360° North 453 521 31,000  Level FlightAware ADS-B
Tue 09:27:37 PM -26.3080 -57.6010 358° North 453 521 31,000  Level FlightAware ADS-B
Tue 09:28:22 PM -26.2090 -57.6020 359° North 453 521 31,000  Level FlightAware ADS-B
Tue 09:29:02 PM -26.1310 -57.6030 359° North 453 521 31,000  Level FlightAware ADS-B
Tue 09:29:47 PM -26.0340 -57.6030 360° North 452 520 31,000  Level FlightAware ADS-B
Tue 09:30:32 PM -25.9480 -57.6040 359° North 452 520 31,000  Level FlightAware ADS-B
Tue 09:31:12 PM -25.8770 -57.6060 359° North 452 520 31,000  Level FlightAware ADS-B
Tue 09:31:52 PM -25.8050 -57.6070 359° North 452 520 31,000  Level FlightAware ADS-B
Tue 09:32:32 PM -25.7340 -57.6090 359° North 452 520 31,000  Level FlightAware ADS-B
Tue 09:33:12 PM -25.6630 -57.6100 359° North 452 520 31,000  Level FlightAware ADS-B
Tue 09:34:02 PM -25.5740 -57.6120 359° North 452 520 31,000  Level FlightAware ADS-B
Tue 09:34:42 PM -25.5030 -57.6130 359° North 452 520 31,000  Level FlightAware ADS-B
Tue 09:35:22 PM -25.4320 -57.6140 359° North 452 520 31,000  Level FlightAware ADS-B
Tue 09:36:02 PM -25.3610 -57.6160 359° North 452 520 31,000  Level FlightAware ADS-B
Tue 09:36:42 PM -25.2900 -57.6170 359° North 452 520 31,000  Level FlightAware ADS-B
Tue 09:37:32 PM -25.2010 -57.6190 359° North 452 520 31,000  Level FlightAware ADS-B
Tue 09:38:12 PM -25.1300 -57.6200 359° North 452 520 31,000  Level FlightAware ADS-B
Tue 09:38:52 PM -25.0590 -57.6220 359° North 452 520 31,000  Level FlightAware ADS-B
Tue 09:39:32 PM -24.9880 -57.6230 359° North 452 520 31,000 24 Level FlightAware ADS-B
Tue 09:40:42 PM -24.6390 -57.6280 359° North 32,800 24 Climbing FlightAware ADS-B
Tue 09:43:00 PM -24.3837 -57.7590 335° Northwest  Level Estimated
Tue 09:44:00 PM -24.2727 -57.8158 335° Northwest  Level Estimated
Tue 09:45:00 PM -24.1616 -57.8726 335° Northwest  Level Estimated
Tue 09:46:00 PM -24.0505 -57.9292 335° Northwest  Level Estimated
Tue 09:47:00 PM -23.9394 -57.9857 335° Northwest  Level Estimated
Tue 09:48:00 PM -23.8283 -58.0421 335° Northwest  Level Estimated
Tue 09:49:00 PM -23.7172 -58.0984 335° Northwest  Level Estimated
Tue 09:50:00 PM -23.6060 -58.1546 335° Northwest  Level Estimated
Tue 09:51:00 PM -23.4948 -58.2108 335° Northwest  Level Estimated
Tue 09:52:00 PM -23.3836 -58.2668 335° Northwest  Level Estimated
Tue 09:53:00 PM -23.2724 -58.3227 335° Northwest  Level Estimated
Tue 09:54:00 PM -23.1612 -58.3786 335° Northwest  Level Estimated
Tue 09:55:00 PM -23.0499 -58.4343 335° Northwest  Level Estimated
Tue 09:56:00 PM -22.9386 -58.4900 335° Northwest  Level Estimated
Tue 09:57:00 PM -22.8273 -58.5455 335° Northwest  Level Estimated
Tue 09:58:00 PM -22.7160 -58.6010 335° Northwest  Level Estimated
Tue 09:59:00 PM -22.6047 -58.6564 335° Northwest  Level Estimated
Tue 10:00:00 PM -22.4933 -58.7117 335° Northwest  Level Estimated
Tue 10:01:00 PM -22.3820 -58.7669 335° Northwest  Level Estimated
Tue 10:02:00 PM -22.2706 -58.8220 335° Northwest  Level Estimated
Tue 10:03:00 PM -22.1591 -58.8771 335° Northwest  Level Estimated
Tue 10:04:00 PM -22.0477 -58.9320 335° Northwest  Level Estimated
Tue 10:05:00 PM -21.9363 -58.9869 335° Northwest  Level Estimated
Tue 10:06:00 PM -21.8248 -59.0416 335° Northwest  Level Estimated
Tue 10:07:00 PM -21.7133 -59.0963 335° Northwest  Level Estimated
Tue 10:08:00 PM -21.6018 -59.1509 336° Northwest  Level Estimated
Tue 10:09:00 PM -21.4903 -59.2054 336° Northwest  Level Estimated
Tue 10:10:00 PM -21.3788 -59.2599 336° Northwest  Level Estimated
Tue 10:11:00 PM -21.2672 -59.3142 336° Northwest  Level Estimated
Tue 10:12:00 PM -21.1556 -59.3685 336° Northwest  Level Estimated
Tue 10:13:00 PM -21.0441 -59.4227 336° Northwest  Level Estimated
Tue 10:14:00 PM -20.9324 -59.4768 336° Northwest  Level Estimated
Tue 10:15:00 PM -20.8208 -59.5308 336° Northwest  Level Estimated
Tue 10:16:00 PM -20.7092 -59.5848 336° Northwest  Level Estimated
Tue 10:17:00 PM -20.5975 -59.6386 336° Northwest  Level Estimated
Tue 10:18:00 PM -20.4858 -59.6924 336° Northwest  Level Estimated
Tue 10:19:00 PM -20.3742 -59.7462 336° Northwest  Level Estimated
Tue 10:20:00 PM -20.2624 -59.7998 336° Northwest  Level Estimated
Tue 10:21:00 PM -20.1507 -59.8533 336° Northwest  Level Estimated
Tue 10:22:00 PM -20.0390 -59.9068 336° Northwest  Level Estimated
Tue 10:23:00 PM -19.9272 -59.9602 336° Northwest  Level Estimated
Tue 10:24:00 PM -19.8155 -60.0135 336° Northwest  Level Estimated
Tue 10:25:00 PM -19.7037 -60.0668 336° Northwest  Level Estimated
Tue 10:26:00 PM -19.5919 -60.1200 336° Northwest  Level Estimated
Tue 10:27:00 PM -19.4800 -60.1731 336° Northwest  Level Estimated
Tue 10:28:00 PM -19.3682 -60.2261 336° Northwest  Level Estimated
Tue 10:29:00 PM -19.2564 -60.2791 336° Northwest  Level Estimated
Tue 10:30:00 PM -19.1445 -60.3319 336° Northwest  Level Estimated
Tue 10:31:00 PM -19.0336 -60.3843 336° Northwest  Level Estimated
Tue 10:32:00 PM -18.9228 -60.4366 336° Northwest  Level Estimated
Tue 10:33:00 PM -18.8119 -60.4888 336° Northwest  Level Estimated
Tue 10:34:00 PM -18.7010 -60.5409 336° Northwest  Level Estimated
Tue 10:35:00 PM -18.5900 -60.5929 336° Northwest  Level Estimated
Tue 10:36:00 PM -18.4791 -60.6449 336° Northwest  Level Estimated
Tue 10:37:00 PM -18.3681 -60.6968 336° Northwest  Level Estimated
Tue 10:38:00 PM -18.2572 -60.7487 336° Northwest  Level Estimated
Tue 10:39:00 PM -18.1462 -60.8005 336° Northwest  Level Estimated
Tue 10:40:00 PM -18.0352 -60.8522 336° Northwest  Level Estimated
Tue 10:41:00 PM -17.9242 -60.9039 336° Northwest  Level Estimated
Tue 10:42:00 PM -17.8132 -60.9555 336° Northwest  Level Estimated
Tue 10:43:00 PM -17.7021 -61.0070 336° Northwest  Level Estimated
Tue 10:44:00 PM -17.5911 -61.0585 336° Northwest  Level Estimated
Tue 10:45:00 PM -17.4800 -61.1099 336° Northwest  Level Estimated
Tue 10:46:00 PM -17.3689 -61.1612 336° Northwest  Level Estimated
Tue 10:47:00 PM -17.2579 -61.2125 336° Northwest  Level Estimated
Tue 10:48:00 PM -17.1467 -61.2637 336° Northwest  Level Estimated
Tue 10:49:00 PM -17.0356 -61.3149 336° Northwest  Level Estimated
Tue 10:50:00 PM -16.9245 -61.3660 336° Northwest  Level Estimated
Tue 10:51:00 PM -16.8134 -61.4170 336° Northwest  Level Estimated
Tue 10:52:00 PM -16.7022 -61.4680 336° Northwest  Level Estimated
Tue 10:53:00 PM -16.5911 -61.5189 336° Northwest  Level Estimated
Tue 10:54:00 PM -16.4799 -61.5698 336° Northwest  Level Estimated
Tue 10:55:00 PM -16.3687 -61.6206 336° Northwest  Level Estimated
Tue 10:56:00 PM -16.2575 -61.6713 336° Northwest  Level Estimated
Tue 10:57:00 PM -16.1463 -61.7220 336° Northwest  Level Estimated
Tue 10:58:00 PM -16.0350 -61.7726 336° Northwest  Level Estimated
Tue 10:59:00 PM -15.9238 -61.8232 336° Northwest  Level Estimated
Tue 11:00:00 PM -15.8126 -61.8737 336° Northwest  Level Estimated
Tue 11:01:00 PM -15.7013 -61.9242 336° Northwest  Level Estimated
Tue 11:02:00 PM -15.5900 -61.9746 336° Northwest  Level Estimated
Tue 11:03:00 PM -15.4788 -62.0249 336° Northwest  Level Estimated
Tue 11:04:00 PM -15.3674 -62.0752 336° Northwest  Level Estimated
Tue 11:05:00 PM -15.2561 -62.1255 336° Northwest  Level Estimated
Tue 11:06:00 PM -15.1448 -62.1757 336° Northwest  Level Estimated
Tue 11:07:00 PM -15.0335 -62.2258 336° Northwest  Level Estimated
Tue 11:08:00 PM -14.9221 -62.2759 337° Northwest  Level Estimated
Tue 11:09:00 PM -14.8108 -62.3259 337° Northwest  Level Estimated
Tue 11:10:00 PM -14.6994 -62.3759 337° Northwest  Level Estimated
Tue 11:11:00 PM -14.5881 -62.4258 337° Northwest  Level Estimated
Tue 11:12:00 PM -14.4767 -62.4757 337° Northwest  Level Estimated
Tue 11:13:00 PM -14.3653 -62.5255 337° Northwest  Level Estimated
Tue 11:14:00 PM -14.2539 -62.5753 337° Northwest  Level Estimated
Tue 11:15:00 PM -14.1425 -62.6250 337° Northwest  Level Estimated
Tue 11:16:00 PM -14.0311 -62.6747 337° Northwest  Level Estimated
Tue 11:17:00 PM -13.9196 -62.7243 337° Northwest  Level Estimated
Tue 11:18:00 PM -13.8086 -62.7738 337° Northwest  Level Estimated
Tue 11:19:00 PM -13.6975 -62.8231 337° Northwest  Level Estimated
Tue 11:20:00 PM -13.5865 -62.8724 337° Northwest  Level Estimated
Tue 11:21:00 PM -13.4754 -62.9217 337° Northwest  Level Estimated
Tue 11:22:00 PM -13.3643 -62.9709 337° Northwest  Level Estimated
Tue 11:23:00 PM -13.2533 -63.0201 337° Northwest  Level Estimated
Tue 11:24:00 PM -13.1421 -63.0692 337° Northwest  Level Estimated
Tue 11:25:00 PM -13.0310 -63.1183 337° Northwest  Level Estimated
Tue 11:26:00 PM -12.9199 -63.1673 337° Northwest  Level Estimated
Tue 11:27:00 PM -12.8088 -63.2163 337° Northwest  Level Estimated
Tue 11:28:00 PM -12.6976 -63.2653 337° Northwest  Level Estimated
Tue 11:29:00 PM -12.5865 -63.3142 337° Northwest  Level Estimated
Tue 11:30:00 PM -12.4754 -63.3631 337° Northwest  Level Estimated
Tue 11:31:00 PM -12.3642 -63.4119 337° Northwest  Level Estimated
Tue 11:32:00 PM -12.2530 -63.4607 337° Northwest  Level Estimated
Tue 11:33:00 PM -12.1418 -63.5094 337° Northwest  Level Estimated
Tue 11:34:00 PM -12.0307 -63.5581 337° Northwest  Level Estimated
Tue 11:35:00 PM -11.9194 -63.6068 337° Northwest  Level Estimated
Tue 11:36:00 PM -11.8082 -63.6554 337° Northwest  Level Estimated
Tue 11:37:00 PM -11.6972 -63.7039 337° Northwest  Level Estimated
Tue 11:38:00 PM -11.5862 -63.7524 337° Northwest  Level Estimated
Tue 11:39:00 PM -11.4752 -63.8008 337° Northwest  Level Estimated
Tue 11:40:00 PM -11.3641 -63.8492 337° Northwest  Level Estimated
Tue 11:41:00 PM -11.2531 -63.8975 337° Northwest  Level Estimated
Tue 11:42:00 PM -11.1420 -63.9458 337° Northwest  Level Estimated
Tue 11:43:00 PM -11.0310 -63.9941 337° Northwest  Level Estimated
Tue 11:44:00 PM -10.9199 -64.0423 337° Northwest  Level Estimated
Tue 11:45:00 PM -10.8088 -64.0905 337° Northwest  Level Estimated
Tue 11:46:00 PM -10.6978 -64.1387 337° Northwest  Level Estimated
Tue 11:47:00 PM -10.5867 -64.1868 337° Northwest  Level Estimated
Tue 11:48:00 PM -10.4756 -64.2349 337° Northwest  Level Estimated
Tue 11:49:00 PM -10.3645 -64.2830 337° Northwest  Level Estimated
Tue 11:50:00 PM -10.2533 -64.3310 337° Northwest  Level Estimated
Tue 11:51:00 PM -10.1422 -64.3790 337° Northwest  Level Estimated
Tue 11:52:00 PM -10.0311 -64.4269 337° Northwest  Level Estimated
Tue 11:53:00 PM -9.9200 -64.4749 337° Northwest  Level Estimated
Tue 11:54:00 PM -9.8088 -64.5227 337° Northwest  Level Estimated
Tue 11:55:00 PM -9.6977 -64.5706 337° Northwest  Level Estimated
Tue 11:56:00 PM -9.5865 -64.6184 337° Northwest  Level Estimated
Tue 11:57:00 PM -9.4754 -64.6662 337° Northwest  Level Estimated
Tue 11:58:00 PM -9.3642 -64.7140 337° Northwest  Level Estimated
Tue 11:59:00 PM -9.2530 -64.7617 337° Northwest  Level Estimated
Wed 12:00:00 AM -9.1418 -64.8094 337° Northwest  Level Estimated
Wed 12:01:00 AM -9.0307 -64.8571 337° Northwest  Level Estimated
Wed 12:02:00 AM -8.9195 -64.9047 337° Northwest  Level Estimated
Wed 12:03:00 AM -8.8083 -64.9523 337° Northwest  Level Estimated
Wed 12:04:00 AM -8.6971 -64.9999 337° Northwest  Level Estimated
Wed 12:05:00 AM -8.5858 -65.0475 337° Northwest  Level Estimated
Wed 12:06:00 AM -8.4746 -65.0950 337° Northwest  Level Estimated
Wed 12:07:00 AM -8.3634 -65.1425 337° Northwest  Level Estimated
Wed 12:08:00 AM -8.2522 -65.1900 337° Northwest  Level Estimated
Wed 12:09:00 AM -8.1413 -65.2373 337° Northwest  Level Estimated
Wed 12:10:00 AM -8.0305 -65.2845 337° Northwest  Level Estimated
Wed 12:11:00 AM -7.9197 -65.3318 337° Northwest  Level Estimated
Wed 12:12:00 AM -7.8088 -65.3790 337° Northwest  Level Estimated
Wed 12:13:00 AM -7.6980 -65.4261 337° Northwest  Level Estimated
Wed 12:14:00 AM -7.5871 -65.4733 337° Northwest  Level Estimated
Wed 12:15:00 AM -7.4762 -65.5204 337° Northwest  Level Estimated
Wed 12:16:00 AM -7.3654 -65.5675 337° Northwest  Level Estimated
Wed 12:17:00 AM -7.2545 -65.6146 337° Northwest  Level Estimated
Wed 12:18:00 AM -7.1436 -65.6617 337° Northwest  Level Estimated
Wed 12:19:00 AM -7.0327 -65.7087 337° Northwest  Level Estimated
Wed 12:20:00 AM -6.9219 -65.7557 337° Northwest  Level Estimated
Wed 12:21:00 AM -6.8110 -65.8027 337° Northwest  Level Estimated
Wed 12:22:00 AM -6.7001 -65.8497 337° Northwest  Level Estimated
Wed 12:23:00 AM -6.5892 -65.8966 337° Northwest  Level Estimated
Wed 12:24:00 AM -6.4783 -65.9436 337° Northwest  Level Estimated
Wed 12:25:00 AM -6.3673 -65.9905 337° Northwest  Level Estimated
Wed 12:25:07 AM -3.9840 -59.9820 337° Northwest 470 541 35,000  Level FlightAware ADS-B
Wed 12:25:47 AM -3.8970 -59.9910 354° North 471 542 35,000  Level FlightAware ADS-B
Wed 12:26:27 AM -3.8120 -59.9980 355° North 471 542 35,000  Level FlightAware ADS-B
Wed 12:27:12 AM -3.7130 -60.0080 354° North 470 541 35,000 71 Level FlightAware ADS-B
Wed 12:27:52 AM -3.6220 -60.0160 355° North 469 540 35,100 375 Climbing FlightAware ADS-B
Wed 12:28:32 AM -3.5350 -60.0250 354° North 463 533 35,500 565 Climbing FlightAware ADS-B
Wed 12:29:17 AM -3.4380 -60.0340 355° North 459 528 35,900 353 Climbing FlightAware ADS-B
Wed 12:29:57 AM -3.3520 -60.0420 355° North 461 531 36,000 71 Climbing FlightAware ADS-B
Wed 12:30:42 AM -3.2580 -60.0510 355° North 466 536 36,000  Level FlightAware ADS-B
Wed 12:31:22 AM -3.1710 -60.0590 355° North 469 540 36,000  Level FlightAware ADS-B
Wed 12:32:07 AM -3.0730 -60.0680 355° North 468 539 36,000  Level FlightAware ADS-B
Wed 12:32:47 AM -2.9880 -60.0890 346° North 464 534 36,000  Level FlightAware ADS-B
Wed 12:33:27 AM -2.9100 -60.1220 337° Northwest 463 533 36,000  Level FlightAware ADS-B
Wed 12:34:12 AM -2.8230 -60.1610 336° Northwest 464 534 36,000  Level FlightAware ADS-B
Wed 12:34:52 AM -2.7430 -60.1960 336° Northwest 466 536 36,000  Level FlightAware ADS-B
Wed 12:35:37 AM -2.6520 -60.2360 336° Northwest 466 536 36,000  Level FlightAware ADS-B
Wed 12:36:17 AM -2.5720 -60.2720 336° Northwest 467 537 36,000  Level FlightAware ADS-B
Wed 12:36:57 AM -2.4930 -60.3070 336° Northwest 467 537 36,000  Level FlightAware ADS-B
Wed 12:37:42 AM -2.4050 -60.3450 337° Northwest 467 537 36,000  Level FlightAware ADS-B
Wed 12:38:22 AM -2.3260 -60.3810 336° Northwest 467 537 36,000  Level FlightAware ADS-B
Wed 12:39:07 AM -2.2350 -60.4200 337° Northwest 467 537 36,000  Level FlightAware ADS-B
Wed 12:39:47 AM -2.1550 -60.4560 336° Northwest 466 536 36,000  Level FlightAware ADS-B
Wed 12:40:27 AM -2.0760 -60.4910 336° Northwest 465 535 36,000  Level FlightAware ADS-B
Wed 12:41:12 AM -1.9910 -60.5290 336° Northwest 465 535 36,000  Level FlightAware ADS-B
Wed 12:41:52 AM -1.9110 -60.5640 336° Northwest 465 535 36,000  Level FlightAware ADS-B
Wed 12:42:37 AM -1.8230 -60.6030 336° Northwest 465 535 36,000  Level FlightAware ADS-B
Wed 12:43:17 AM -1.7410 -60.6390 336° Northwest 466 536 36,000  Level FlightAware ADS-B
Wed 12:43:57 AM -1.6610 -60.6750 336° Northwest 466 536 36,000  Level FlightAware ADS-B
Wed 12:44:42 AM -1.5770 -60.7120 336° Northwest 466 536 36,000  Level FlightAware ADS-B
Wed 12:45:22 AM -1.5030 -60.7440 337° Northwest 467 537 36,000  Level FlightAware ADS-B
Wed 12:46:07 AM -1.4080 -60.7870 336° Northwest 467 537 36,000  Level FlightAware ADS-B
Wed 12:46:47 AM -1.3260 -60.8230 336° Northwest 467 537 36,000  Level FlightAware ADS-B
Wed 12:47:27 AM -1.2460 -60.8580 336° Northwest 467 537 36,000  Level FlightAware ADS-B
Wed 12:48:12 AM -1.1630 -60.8950 336° Northwest 468 539 36,000  Level FlightAware ADS-B
Wed 12:48:52 AM -1.0790 -60.9320 336° Northwest 468 539 36,000  Level FlightAware ADS-B
Wed 12:49:32 AM -1.0000 -60.9670 336° Northwest 467 537 36,000  Level FlightAware ADS-B
Wed 12:50:12 AM -0.9280 -61.0000 335° Northwest 466 536 36,000  Level FlightAware ADS-B
Wed 12:50:52 AM -0.8620 -61.0310 335° Northwest 466 536 36,000  Level FlightAware ADS-B
Wed 12:51:42 AM -0.7790 -61.0700 335° Northwest 466 536 36,000  Level FlightAware ADS-B
Wed 12:52:22 AM -0.7120 -61.1010 335° Northwest 466 536 36,000  Level FlightAware ADS-B
Wed 12:53:02 AM -0.6460 -61.1320 335° Northwest 466 536 36,000  Level FlightAware ADS-B
Wed 12:53:42 AM -0.5800 -61.1630 335° Northwest 466 536 36,000  Level FlightAware ADS-B
Wed 12:54:22 AM -0.5130 -61.1940 335° Northwest 466 536 36,000  Level FlightAware ADS-B
Wed 12:55:12 AM -0.4300 -61.2330 335° Northwest 466 536 36,000  Level FlightAware ADS-B
Wed 12:55:52 AM -0.3640 -61.2640 335° Northwest 466 536 36,000  Level FlightAware ADS-B
Wed 12:56:32 AM -0.2970 -61.2950 335° Northwest 466 536 36,000  Level FlightAware ADS-B
Wed 12:57:12 AM -0.2310 -61.3260 335° Northwest 466 536 36,000  Level FlightAware ADS-B
Wed 12:57:52 AM -0.1640 -61.3560 336° Northwest 466 536 36,000  Level FlightAware ADS-B
Wed 12:58:42 AM -0.0810 -61.3950 335° Northwest 466 536 36,000  Level FlightAware ADS-B
Wed 12:59:22 AM -0.0150 -61.4260 335° Northwest 466 536 36,000  Level FlightAware ADS-B
Wed 01:01:00 AM 0.1481 -61.5350 326° Northwest  Level Estimated
Wed 01:02:00 AM 0.2479 -61.6018 326° Northwest  Level Estimated
Wed 01:03:00 AM 0.3477 -61.6685 326° Northwest  Level Estimated
Wed 01:04:00 AM 0.4475 -61.7353 326° Northwest  Level Estimated
Wed 01:05:00 AM 0.5474 -61.8020 326° Northwest  Level Estimated
Wed 01:06:00 AM 0.6472 -61.8688 326° Northwest  Level Estimated
Wed 01:07:00 AM 0.7470 -61.9356 326° Northwest  Level Estimated
Wed 01:08:00 AM 0.8469 -62.0023 326° Northwest  Level Estimated
Wed 01:09:00 AM 0.9467 -62.0691 326° Northwest  Level Estimated
Wed 01:10:00 AM 1.0465 -62.1359 326° Northwest  Level Estimated
Wed 01:11:00 AM 1.1464 -62.2026 326° Northwest  Level Estimated
Wed 01:12:00 AM 1.2462 -62.2694 326° Northwest  Level Estimated
Wed 01:13:00 AM 1.3460 -62.3362 326° Northwest  Level Estimated
Wed 01:14:00 AM 1.4458 -62.4030 326° Northwest  Level Estimated
Wed 01:15:00 AM 1.5456 -62.4698 326° Northwest  Level Estimated
Wed 01:16:00 AM 1.6454 -62.5366 326° Northwest  Level Estimated
Wed 01:17:00 AM 1.7452 -62.6034 326° Northwest  Level Estimated
Wed 01:18:00 AM 1.8451 -62.6702 326° Northwest  Level Estimated
Wed 01:19:00 AM 1.9449 -62.7370 326° Northwest  Level Estimated
Wed 01:20:00 AM 2.0447 -62.8039 326° Northwest  Level Estimated
Wed 01:21:00 AM 2.1445 -62.8707 326° Northwest  Level Estimated
Wed 01:22:00 AM 2.2443 -62.9375 326° Northwest  Level Estimated
Wed 01:23:00 AM 2.3441 -63.0044 326° Northwest  Level Estimated
Wed 01:24:00 AM 2.4439 -63.0713 326° Northwest  Level Estimated
Wed 01:25:00 AM 2.5437 -63.1382 326° Northwest  Level Estimated
Wed 01:26:00 AM 2.6435 -63.2051 326° Northwest  Level Estimated
Wed 01:27:00 AM 2.7432 -63.2719 326° Northwest  Level Estimated
Wed 01:28:00 AM 2.8430 -63.3389 326° Northwest  Level Estimated
Wed 01:29:00 AM 2.9428 -63.4058 326° Northwest  Level Estimated
Wed 01:30:00 AM 3.0426 -63.4727 326° Northwest  Level Estimated
Wed 01:31:00 AM 3.1423 -63.5397 326° Northwest  Level Estimated
Wed 01:32:00 AM 3.2421 -63.6066 326° Northwest  Level Estimated
Wed 01:33:00 AM 3.3419 -63.6736 326° Northwest  Level Estimated
Wed 01:34:00 AM 3.4416 -63.7406 326° Northwest  Level Estimated
Wed 01:35:00 AM 3.5413 -63.8076 326° Northwest  Level Estimated
Wed 01:36:00 AM 3.6411 -63.8746 326° Northwest  Level Estimated
Wed 01:37:00 AM 3.7408 -63.9416 326° Northwest  Level Estimated
Wed 01:38:00 AM 3.8406 -64.0087 326° Northwest  Level Estimated
Wed 01:39:00 AM 3.9403 -64.0757 326° Northwest  Level Estimated
Wed 01:40:00 AM 4.0400 -64.1428 326° Northwest  Level Estimated
Wed 01:41:00 AM 4.1397 -64.2099 326° Northwest  Level Estimated
Wed 01:42:00 AM 4.2394 -64.2770 326° Northwest  Level Estimated
Wed 01:43:00 AM 4.3391 -64.3441 326° Northwest  Level Estimated
Wed 01:44:00 AM 4.4388 -64.4113 326° Northwest  Level Estimated
Wed 01:45:00 AM 4.5385 -64.4784 326° Northwest  Level Estimated
Wed 01:46:00 AM 4.6382 -64.5456 326° Northwest  Level Estimated
Wed 01:47:00 AM 4.7379 -64.6128 326° Northwest  Level Estimated
Wed 01:48:00 AM 4.8376 -64.6800 326° Northwest  Level Estimated
Wed 01:49:00 AM 4.9373 -64.7473 326° Northwest  Level Estimated
Wed 01:50:00 AM 5.0369 -64.8145 326° Northwest  Level Estimated
Wed 01:51:00 AM 5.1366 -64.8818 326° Northwest  Level Estimated
Wed 01:52:00 AM 5.2362 -64.9491 326° Northwest  Level Estimated
Wed 01:53:00 AM 5.3359 -65.0164 326° Northwest  Level Estimated
Wed 01:54:00 AM 5.4355 -65.0838 326° Northwest  Level Estimated
Wed 01:55:00 AM 5.5351 -65.1511 326° Northwest  Level Estimated
Wed 01:56:00 AM 5.6347 -65.2185 326° Northwest  Level Estimated
Wed 01:57:00 AM 5.7344 -65.2859 326° Northwest  Level Estimated
Wed 01:58:00 AM 5.8340 -65.3534 326° Northwest  Level Estimated
Wed 01:59:00 AM 5.9336 -65.4208 326° Northwest  Level Estimated
Wed 02:00:00 AM 6.0332 -65.4883 326° Northwest  Level Estimated
Wed 02:01:00 AM 6.1327 -65.5558 326° Northwest  Level Estimated
Wed 02:02:00 AM 6.2323 -65.6234 326° Northwest  Level Estimated
Wed 02:03:00 AM 6.3319 -65.6909 326° Northwest  Level Estimated
Wed 02:04:00 AM 6.4314 -65.7585 326° Northwest  Level Estimated
Wed 02:05:00 AM 6.5310 -65.8261 326° Northwest  Level Estimated
Wed 02:06:00 AM 6.6305 -65.8938 326° Northwest  Level Estimated
Wed 02:07:00 AM 6.7300 -65.9614 326° Northwest  Level Estimated
Wed 02:08:00 AM 6.8295 -66.0291 326° Northwest  Level Estimated
Wed 02:09:00 AM 6.9290 -66.0968 326° Northwest  Level Estimated
Wed 02:10:00 AM 7.0285 -66.1646 326° Northwest  Level Estimated
Wed 02:11:00 AM 7.1280 -66.2324 326° Northwest  Level Estimated
Wed 02:12:00 AM 7.2275 -66.3002 326° Northwest  Level Estimated
Wed 02:13:00 AM 7.3270 -66.3680 326° Northwest  Level Estimated
Wed 02:14:00 AM 7.4264 -66.4359 326° Northwest  Level Estimated
Wed 02:15:00 AM 7.5259 -66.5038 326° Northwest  Level Estimated
Wed 02:16:00 AM 7.6253 -66.5717 326° Northwest  Level Estimated
Wed 02:17:00 AM 7.7248 -66.6397 326° Northwest  Level Estimated
Wed 02:18:00 AM 7.8242 -66.7077 326° Northwest  Level Estimated
Wed 02:19:00 AM 7.9236 -66.7757 326° Northwest  Level Estimated
Wed 02:20:00 AM 8.0230 -66.8438 326° Northwest  Level Estimated
Wed 02:21:00 AM 8.1223 -66.9118 326° Northwest  Level Estimated
Wed 02:22:00 AM 8.2217 -66.9800 326° Northwest  Level Estimated
Wed 02:23:00 AM 8.3211 -67.0481 326° Northwest  Level Estimated
Wed 02:24:00 AM 8.4204 -67.1163 326° Northwest  Level Estimated
Wed 02:25:00 AM 8.5198 -67.1846 326° Northwest  Level Estimated
Wed 02:26:00 AM 8.6191 -67.2528 326° Northwest  Level Estimated
Wed 02:27:00 AM 8.7184 -67.3211 326° Northwest  Level Estimated
Wed 02:28:00 AM 8.8170 -67.3890 326° Northwest  Level Estimated
Wed 02:29:00 AM 8.9156 -67.4569 326° Northwest  Level Estimated
Wed 02:30:00 AM 9.0141 -67.5248 326° Northwest  Level Estimated
Wed 02:31:00 AM 9.1127 -67.5928 326° Northwest  Level Estimated
Wed 02:32:00 AM 9.2112 -67.6608 326° Northwest  Level Estimated
Wed 02:33:00 AM 9.3098 -67.7288 326° Northwest  Level Estimated
Wed 02:34:00 AM 9.4083 -67.7969 326° Northwest  Level Estimated
Wed 02:35:00 AM 9.5068 -67.8650 326° Northwest  Level Estimated
Wed 02:36:00 AM 9.6053 -67.9331 326° Northwest  Level Estimated
Wed 02:37:00 AM 9.7038 -68.0013 326° Northwest  Level Estimated
Wed 02:38:00 AM 9.8022 -68.0695 326° Northwest  Level Estimated
Wed 02:39:00 AM 9.9007 -68.1378 326° Northwest  Level Estimated
Wed 02:40:00 AM 9.9991 -68.2061 326° Northwest  Level Estimated
Wed 02:41:00 AM 10.0975 -68.2745 326° Northwest  Level Estimated
Wed 02:42:00 AM 10.1959 -68.3429 326° Northwest  Level Estimated
Wed 02:43:00 AM 10.2943 -68.4113 326° Northwest  Level Estimated
Wed 02:44:00 AM 10.3927 -68.4798 326° Northwest  Level Estimated
Wed 02:45:00 AM 10.4911 -68.5483 326° Northwest  Level Estimated
Wed 02:46:00 AM 10.5894 -68.6169 326° Northwest  Level Estimated
Wed 02:47:00 AM 10.6878 -68.6855 326° Northwest  Level Estimated
Wed 02:48:00 AM 10.7861 -68.7542 326° Northwest  Level Estimated
Wed 02:49:00 AM 10.8844 -68.8229 326° Northwest  Level Estimated
Wed 02:50:00 AM 10.9827 -68.8916 326° Northwest  Level Estimated
Wed 02:51:00 AM 11.0810 -68.9604 326° Northwest  Level Estimated
Wed 02:52:00 AM 11.1792 -69.0293 326° Northwest  Level Estimated
Wed 02:53:00 AM 11.2775 -69.0982 325° Northwest  Level Estimated
Wed 02:54:00 AM 11.3757 -69.1671 325° Northwest  Level Estimated
Wed 02:55:00 AM 11.4739 -69.2361 325° Northwest  Level Estimated
Wed 02:56:00 AM 11.5721 -69.3051 325° Northwest  Level Estimated
Wed 02:57:00 AM 11.6703 -69.3742 325° Northwest  Level Estimated
Wed 02:58:00 AM 11.7685 -69.4433 325° Northwest  Level Estimated
Wed 02:59:00 AM 11.8666 -69.5125 325° Northwest  Level Estimated
Wed 03:00:00 AM 11.9647 -69.5817 325° Northwest  Level Estimated
Wed 03:01:00 AM 12.0628 -69.6510 325° Northwest  Level Estimated
Wed 03:02:00 AM 12.1609 -69.7203 325° Northwest  Level Estimated
Wed 03:03:00 AM 12.2590 -69.7897 325° Northwest  Level Estimated
Wed 03:04:00 AM 12.3571 -69.8591 325° Northwest  Level Estimated
Wed 03:05:00 AM 12.4551 -69.9286 325° Northwest  Level Estimated
Wed 03:06:00 AM 12.5532 -69.9981 325° Northwest  Level Estimated
Wed 03:07:00 AM 12.6512 -70.0677 325° Northwest  Level Estimated
Wed 03:08:00 AM 12.7492 -70.1374 325° Northwest  Level Estimated
Wed 03:09:00 AM 12.8471 -70.2071 325° Northwest  Level Estimated
Wed 03:10:00 AM 12.9451 -70.2768 325° Northwest  Level Estimated
Wed 03:11:00 AM 13.0430 -70.3466 325° Northwest  Level Estimated
Wed 03:12:00 AM 13.1409 -70.4165 325° Northwest  Level Estimated
Wed 03:13:00 AM 13.2388 -70.4864 325° Northwest  Level Estimated
Wed 03:14:00 AM 13.3367 -70.5564 325° Northwest  Level Estimated
Wed 03:15:00 AM 13.4346 -70.6264 325° Northwest  Level Estimated
Wed 03:16:00 AM 13.5324 -70.6965 325° Northwest  Level Estimated
Wed 03:17:00 AM 13.6302 -70.7666 325° Northwest  Level Estimated
Wed 03:18:00 AM 13.7280 -70.8368 325° Northwest  Level Estimated
Wed 03:19:00 AM 13.8258 -70.9071 325° Northwest  Level Estimated
Wed 03:20:00 AM 13.9236 -70.9774 325° Northwest  Level Estimated
Wed 03:21:00 AM 14.0213 -71.0478 325° Northwest  Level Estimated
Wed 03:22:00 AM 14.1190 -71.1182 325° Northwest  Level Estimated
Wed 03:23:00 AM 14.2167 -71.1887 325° Northwest  Level Estimated
Wed 03:24:00 AM 14.3144 -71.2593 325° Northwest  Level Estimated
Wed 03:25:00 AM 14.4121 -71.3299 325° Northwest  Level Estimated
Wed 03:26:00 AM 14.5099 -71.4007 325° Northwest  Level Estimated
Wed 03:27:00 AM 14.6077 -71.4716 325° Northwest  Level Estimated
Wed 03:28:00 AM 14.7054 -71.5425 325° Northwest  Level Estimated
Wed 03:29:00 AM 14.8032 -71.6135 325° Northwest  Level Estimated
Wed 03:30:00 AM 14.9009 -71.6846 325° Northwest  Level Estimated
Wed 03:31:00 AM 14.9986 -71.7557 325° Northwest  Level Estimated
Wed 03:32:00 AM 15.0963 -71.8269 325° Northwest  Level Estimated
Wed 03:33:00 AM 15.1940 -71.8982 325° Northwest  Level Estimated
Wed 03:34:00 AM 15.2916 -71.9695 325° Northwest  Level Estimated
Wed 03:35:00 AM 15.3892 -72.0409 325° Northwest  Level Estimated
Wed 03:36:00 AM 15.4868 -72.1123 325° Northwest  Level Estimated
Wed 03:37:00 AM 15.5844 -72.1839 325° Northwest  Level Estimated
Wed 03:38:00 AM 15.6819 -72.2554 325° Northwest  Level Estimated
Wed 03:39:00 AM 15.7794 -72.3271 325° Northwest  Level Estimated
Wed 03:40:00 AM 15.8769 -72.3988 325° Northwest  Level Estimated
Wed 03:41:00 AM 15.9744 -72.4706 325° Northwest  Level Estimated
Wed 03:42:00 AM 16.0718 -72.5425 325° Northwest  Level Estimated
Wed 03:43:00 AM 16.1693 -72.6144 325° Northwest  Level Estimated
Wed 03:44:00 AM 16.2667 -72.6864 325° Northwest  Level Estimated
Wed 03:45:00 AM 16.3641 -72.7585 325° Northwest  Level Estimated
Wed 03:46:00 AM 16.4614 -72.8307 325° Northwest  Level Estimated
Wed 03:47:00 AM 16.5587 -72.9029 325° Northwest  Level Estimated
Wed 03:48:00 AM 16.6560 -72.9752 325° Northwest  Level Estimated
Wed 03:49:00 AM 16.7533 -73.0476 325° Northwest  Level Estimated
Wed 03:50:00 AM 16.8506 -73.1200 325° Northwest  Level Estimated
Wed 03:51:00 AM 16.9478 -73.1926 324° Northwest  Level Estimated
Wed 03:52:00 AM 17.0498 -73.2687 324° Northwest  Level Estimated
Wed 03:53:00 AM 17.1517 -73.3449 324° Northwest  Level Estimated
Wed 03:54:00 AM 17.2536 -73.4213 324° Northwest  Level Estimated
Wed 03:55:00 AM 17.3555 -73.4977 324° Northwest  Level Estimated
Wed 03:56:00 AM 17.4573 -73.5742 324° Northwest  Level Estimated
Wed 03:56:45 AM 19.1322 -72.6000 324° Northwest 484 557 36,000  Level Miami Center
Wed 03:57:00 AM 17.5592 -73.6507 324° Northwest  Level Estimated
Wed 03:57:45 AM 19.2317 -72.6631 329° Northwest 449 517 36,000  Level Miami Center
Wed 03:58:00 AM 17.6561 -73.7237 324° Northwest  Level Estimated
Wed 03:58:45 AM 19.3292 -72.7214 331° Northwest 421 484 36,000  Level Miami Center
Wed 03:59:00 AM 17.7529 -73.7968 324° Northwest  Level Estimated
Wed 03:59:45 AM 19.4244 -72.7825 329° Northwest 408 470 36,000  Level Miami Center
Wed 04:00:00 AM 17.8498 -73.8699 324° Northwest  Level Estimated
Wed 04:00:45 AM 19.5239 -72.8411 331° Northwest 403 464 36,000  Level Miami Center
Wed 04:01:00 AM 17.9466 -73.9431 324° Northwest  Level Estimated
Wed 04:01:45 AM 19.6214 -72.9000 330° Northwest 408 470 36,000  Level Miami Center
Wed 04:02:45 AM 19.7208 -72.9589 331° Northwest 408 470 36,000  Level Miami Center
Wed 04:03:45 AM 19.8183 -73.0222 329° Northwest 408 470 36,000  Level Miami Center
Wed 04:04:45 AM 19.9136 -73.0792 331° Northwest 408 470 36,000  Level Miami Center
Wed 04:05:45 AM 20.0108 -73.1383 330° Northwest 408 470 36,000  Level Miami Center
Wed 04:06:45 AM 20.1061 -73.1975 330° Northwest 408 470 36,000  Level Miami Center
Wed 04:07:45 AM 20.1953 -73.2681 323° Northwest 408 470 36,000 200 Level Miami Center
Wed 04:08:45 AM 20.2825 -73.3453 320° Northwest 402 463 36,400 550 Climbing Miami Center
Wed 04:09:45 AM 20.3636 -73.4208 319° Northwest 396 456 37,100 700 Climbing Miami Center
Wed 04:10:45 AM 20.4422 -73.4942 319° Northwest 391 450 37,800 450 Climbing Miami Center
Wed 04:11:45 AM 20.5233 -73.5717 318° Northwest 391 450 38,000 100 Climbing Miami Center
Wed 04:12:45 AM 20.6083 -73.6494 319° Northwest 397 457 38,000  Level Miami Center
Wed 04:13:45 AM 20.6892 -73.7253 319° Northwest 397 457 38,000  Level Miami Center
Wed 04:14:45 AM 20.7722 -73.8008 320° Northwest 392 451 38,000  Level Miami Center
Wed 04:15:45 AM 20.8508 -73.8747 319° Northwest 392 451 38,000  Level Miami Center
Wed 04:16:45 AM 20.9336 -73.9506 319° Northwest 392 451 38,000  Level Miami Center
Wed 04:17:45 AM 21.0122 -74.0244 319° Northwest 392 451 38,000  Level Miami Center
Wed 04:18:45 AM 21.0972 -74.1028 319° Northwest 392 451 38,000  Level Miami Center
Wed 04:19:45 AM 21.1758 -74.1792 318° Northwest 392 451 38,000  Level Miami Center
Wed 04:20:45 AM 21.2519 -74.2467 320° Northwest 397 457 38,000  Level Miami Center
Wed 04:21:45 AM 21.3328 -74.3231 319° Northwest 392 451 38,000  Level Miami Center
Wed 04:22:45 AM 21.4153 -74.3994 319° Northwest 392 451 38,000  Level Miami Center
Wed 04:23:45 AM 21.4958 -74.4761 318° Northwest 397 457 38,000  Level Miami Center
Wed 04:24:45 AM 21.5783 -74.5506 320° Northwest 392 451 38,000  Level Miami Center
Wed 04:25:45 AM 21.6611 -74.6272 319° Northwest 397 457 38,000  Level Miami Center
Wed 04:26:45 AM 21.7458 -74.7175 315° West 397 457 38,000  Level Miami Center
Wed 04:27:45 AM 21.8306 -74.7944 320° Northwest 392 451 38,000  Level Miami Center
Wed 04:28:45 AM 21.9108 -74.8736 318° Northwest 392 451 38,000  Level Miami Center
Wed 04:29:45 AM 21.9933 -74.9531 318° Northwest 392 451 38,000  Level Miami Center
Wed 04:30:45 AM 22.0608 -75.0125 321° Northwest 398 458 38,000  Level Miami Center
Wed 04:31:45 AM 22.1414 -75.1056 313° West 392 451 38,000  Level Miami Center
Wed 04:32:45 AM 22.2092 -75.1944 309° West 392 451 38,000  Level Miami Center
Wed 04:33:45 AM 22.2750 -75.2903 307° West 392 451 38,000  Level Miami Center
Wed 04:34:45 AM 22.3406 -75.3814 308° West 392 451 38,000  Level Miami Center
Wed 04:35:45 AM 22.4083 -75.4706 309° West 387 445 38,000  Level Miami Center
Wed 04:36:45 AM 22.4761 -75.5619 309° West 387 445 38,000  Level Miami Center
Wed 04:37:45 AM 22.5436 -75.6536 309° West 387 445 38,000  Level Miami Center
Wed 04:38:45 AM 22.6092 -75.7453 308° West 387 445 38,000  Level Miami Center
Wed 04:39:45 AM 22.6767 -75.8369 309° West 387 445 38,000  Level Miami Center
Wed 04:40:45 AM 22.7419 -75.9286 308° West 387 445 38,000  Level Miami Center
Wed 04:41:45 AM 22.8072 -76.0206 308° West 387 445 38,000  Level Miami Center
Wed 04:42:45 AM 22.8747 -76.1103 309° West 387 445 38,000  Level Miami Center
Wed 04:43:45 AM 22.9419 -76.2025 308° West 387 445 38,000  Level Miami Center
Wed 04:44:45 AM 23.0069 -76.2925 308° West 387 445 38,000  Level Miami Center
Wed 04:45:45 AM 23.0722 -76.3869 307° West 387 445 38,000  Level Miami Center
Wed 04:46:45 AM 23.1372 -76.4747 309° West 387 445 38,000  Level Miami Center
Wed 04:47:45 AM 23.2042 -76.5672 308° West 387 445 38,000  Level Miami Center
Wed 04:48:45 AM 23.2756 -76.6667 308° West 387 445 38,000  Level Miami Center
Wed 04:49:45 AM 23.3403 -76.7594 307° West 387 445 38,000  Level Miami Center
Wed 04:50:45 AM 23.4072 -76.8522 308° West 387 445 38,000  Level Miami Center
Wed 04:51:45 AM 23.4700 -76.9428 307° West 387 445 38,000  Level Miami Center
Wed 04:52:45 AM 23.5325 -77.0333 307° West 387 445 38,000  Level Miami Center
Wed 04:53:45 AM 23.5994 -77.1242 309° West 387 445 38,000  Level Miami Center
Wed 04:54:45 AM 23.6556 -77.2106 305° West 387 445 38,000  Level Miami Center
Wed 04:55:45 AM 23.7200 -77.3014 308° West 380 437 38,000  Level Miami Center
Wed 04:56:45 AM 23.7847 -77.3925 308° West 385 443 38,000  Level Miami Center
Wed 04:57:45 AM 23.8511 -77.4858 308° West 390 449 38,000  Level Miami Center
Wed 04:58:45 AM 23.9133 -77.5794 306° West 390 449 38,000  Level Miami Center
Wed 04:59:45 AM 23.9797 -77.6708 308° West 390 449 38,000  Level Miami Center
Wed 05:05:38 AM 24.3830 -78.2380 308° West 382 440 38,000  Level FlightAware ADS-B
Wed 05:06:23 AM 24.4320 -78.3080 308° West 381 438 38,000  Level FlightAware ADS-B
Wed 05:07:03 AM 24.4750 -78.3720 306° West 382 440 38,000  Level FlightAware ADS-B
Wed 05:07:48 AM 24.5230 -78.4410 307° West 383 441 38,000  Level FlightAware ADS-B
Wed 05:08:28 AM 24.5670 -78.5050 307° West 383 441 38,000  Level FlightAware ADS-B
Wed 05:09:08 AM 24.6090 -78.5670 307° West 383 441 38,000  Level FlightAware ADS-B
Wed 05:09:53 AM 24.6600 -78.6400 308° West 383 441 38,000 -212 Level FlightAware ADS-B
Wed 05:10:33 AM 24.7030 -78.7030 307° West 381 438 37,700 -1,341 Descending FlightAware ADS-B
Wed 05:11:18 AM 24.7500 -78.7730 306° West 381 438 36,100 -2,894 Descending FlightAware ADS-B
Wed 05:11:58 AM 24.7930 -78.8360 307° West 403 464 33,600 -2,600 Descending FlightAware ADS-B
Wed 05:12:48 AM 24.8460 -78.9140 307° West 406 467 32,200 -3,540 Descending FlightAware ADS-B
Wed 05:13:38 AM 24.9070 -79.0030 307° West 422 486 27,700 -4,667 Descending FlightAware ADS-B
Wed 05:14:18 AM 24.9570 -79.0760 307° West 439 505 25,200 -3,000 Descending FlightAware ADS-B
Wed 05:14:58 AM 25.0070 -79.1500 307° West 425 489 23,700 -1,832 Descending FlightAware ADS-B
Wed 05:15:53 AM 25.0690 -79.2430 306° West 395 455 22,300 -1,680 Descending FlightAware ADS-B
Wed 05:16:38 AM 25.1150 -79.3100 307° West 389 448 20,900 -1,835 Descending FlightAware ADS-B
Wed 05:17:18 AM 25.1570 -79.3720 307° West 382 440 19,700 -2,118 Descending FlightAware ADS-B
Wed 05:18:03 AM 25.2070 -79.4470 306° West 376 433 17,900 -2,118 Descending FlightAware ADS-B
Wed 05:18:43 AM 25.2480 -79.5090 306° West 364 419 16,700 -1,906 Descending FlightAware ADS-B
Wed 05:19:28 AM 25.2940 -79.5770 307° West 361 415 15,200 -1,976 Descending FlightAware ADS-B
Wed 05:20:08 AM 25.3340 -79.6370 306° West 356 410 13,900 -1,875 Descending FlightAware ADS-B
Wed 05:20:48 AM 25.3740 -79.6960 307° West 349 402 12,700 -1,482 Descending FlightAware ADS-B
Wed 05:21:33 AM 25.4160 -79.7590 306° West 332 382 11,800 -600 Descending FlightAware ADS-B
Wed 05:22:18 AM 25.4560 -79.8200 306° West 332 382 11,800  Level FlightAware ADS-B
Wed 05:22:58 AM 25.4930 -79.8760 306° West 333 383 11,800  Level FlightAware ADS-B
Wed 05:23:38 AM 25.5280 -79.9300 306° West 330 380 11,800 -424 Level FlightAware ADS-B
Wed 05:24:23 AM 25.5690 -79.9920 306° West 309 356 11,200 -776 Descending FlightAware ADS-B
Wed 05:25:03 AM 25.6020 -80.0410 307° West 288 331 10,700 -1,050 Descending FlightAware ADS-B
Wed 05:25:43 AM 25.6330 -80.0900 305° West 284 327 9,800 -1,286 Descending FlightAware ADS-B
Wed 05:26:13 AM 25.6570 -80.1250 307° West 281 323 9,200 -1,200 Descending FlightAware ADS-B
Wed 05:26:28 AM 25.6680 -80.1430 304° West 281 323 8,900 -1,333 Descending FlightAware ADS-B
Wed 05:26:58 AM 25.6870 -80.1830 298° West 284 327 8,200 -1,309 Descending FlightAware ADS-B
Wed 05:27:23 AM 25.6970 -80.2170 288° West 282 325 7,700 -1,350 Descending FlightAware ADS-B
Wed 05:27:38 AM 25.7020 -80.2370 286° West 275 316 7,300 -1,467 Descending FlightAware ADS-B
Wed 05:28:08 AM 25.7120 -80.2780 285° West 263 303 6,600 -1,636 Descending FlightAware ADS-B
Wed 05:28:33 AM 25.7210 -80.3090 288° West 262 302 5,800 -1,964 Descending FlightAware ADS-B
Wed 05:29:03 AM 25.7290 -80.3490 283° West 266 306 4,800 -1,714 Descending FlightAware ADS-B
Wed 05:29:43 AM 25.7280 -80.4050 269° West 267 307 3,800 -1,286 Descending FlightAware ADS-B
Wed 05:30:13 AM 25.7270 -80.4460 268° West 265 305 3,300 -1,091 Descending FlightAware ADS-B
Wed 05:30:38 AM 25.7380 -80.4740 294° West 255 293 2,800 -1,050 Descending FlightAware ADS-B
Wed 05:30:53 AM 25.7530 -80.4830 332° Northwest 235 270 2,600 -600 Descending FlightAware ADS-B
Wed 05:30:58 AM 25.7580 -80.4840 350° North 229 264 2,600 -600 Level FlightAware ADS-B
Wed 05:31:23 AM 25.7800 -80.4730 24° Northeast 199 229 2,300 -600 Descending FlightAware ADS-B
Wed 05:31:48 AM 25.7940 -80.4530 52° Northeast 170 196 2,100 -764 Descending FlightAware ADS-B
Wed 05:32:18 AM 25.8010 -80.4300 71° East 148 170 1,600 -982 Descending FlightAware ADS-B
Wed 05:32:43 AM 25.8030 -80.4130 83° East 130 150 1,200 -982 Descending FlightAware ADS-B
Wed 05:33:13 AM 25.8050 -80.3930 84° East 129 148 700 -800 Descending FlightAware ADS-B
Wed 05:33:43 AM 25.8050 -80.3730 90° East 129 148 400 -600 Descending FlightAware ADS-B
Wed 05:34:33 AM 25.8070 -80.3420 86° East 138 159 -480 Descending FlightAware ADS-B

Login

Don't have an account? Register now (free) for customized features, flight alerts, and more!